createdAt,value
2019-06-27T00:02:16.061Z,66.04
2019-06-27T00:04:46.491Z,66.24
2019-06-27T00:07:17.006Z,66.47
2019-06-27T00:09:47.315Z,66.63
2019-06-27T00:12:18.112Z,66.89
2019-06-27T00:14:48.666Z,66.82
2019-06-27T00:17:20.561Z,66.88
2019-06-27T00:19:52.821Z,66.71
2019-06-27T00:22:23.532Z,66.76
2019-06-27T00:24:54.831Z,66.79
2019-06-27T00:27:28.046Z,66.96
2019-06-27T00:29:58.418Z,67.13
2019-06-27T00:32:28.743Z,67.04
2019-06-27T00:34:59.201Z,67.20
2019-06-27T00:37:29.566Z,66.96
2019-06-27T00:39:59.849Z,66.85
2019-06-27T00:42:30.380Z,66.67
2019-06-27T00:45:00.703Z,66.62
2019-06-27T00:47:31.522Z,66.09
2019-06-27T00:50:03.713Z,65.61
2019-06-27T00:52:34.222Z,65.25
2019-06-27T00:55:04.803Z,65.20
2019-06-27T00:57:35.331Z,64.55
2019-06-27T01:00:06.178Z,63.75
2019-06-27T01:02:36.988Z,63.41
2019-06-27T01:05:09.197Z,63.49
2019-06-27T01:07:39.997Z,64.00
2019-06-27T01:10:11.651Z,64.34
2019-06-27T01:12:42.238Z,64.33
2019-06-27T01:15:21.027Z,63.89
2019-06-27T01:17:58.888Z,63.43
2019-06-27T01:20:33.246Z,63.34
2019-06-27T01:23:04.247Z,63.17
2019-06-27T01:25:34.676Z,62.92
2019-06-27T01:28:05.062Z,62.29
2019-06-27T01:30:35.448Z,61.85
2019-06-27T01:33:05.796Z,61.38
2019-06-27T01:35:36.201Z,61.02
2019-06-27T01:38:07.122Z,60.83
2019-06-27T01:40:37.445Z,61.17
2019-06-27T01:43:07.872Z,60.61
2019-06-27T01:45:44.870Z,60.96
2019-06-27T01:48:15.262Z,60.94
2019-06-27T01:50:45.601Z,61.75
2019-06-27T01:53:16.057Z,61.87
2019-06-27T01:55:46.531Z,61.86
2019-06-27T01:58:16.847Z,61.69
2019-06-27T02:00:47.212Z,61.99
2019-06-27T02:03:17.589Z,62.57
2019-06-27T02:05:47.958Z,63.26
2019-06-27T02:08:19.192Z,63.96
2019-06-27T02:10:49.661Z,64.12
2019-06-27T02:13:19.958Z,64.10
2019-06-27T02:15:50.478Z,64.21
2019-06-27T02:18:20.757Z,63.45
2019-06-27T02:20:51.228Z,62.87
2019-06-27T02:23:21.616Z,62.22
2019-06-27T02:25:51.950Z,61.69
2019-06-27T02:28:22.294Z,61.17
2019-06-27T02:30:52.805Z,60.99
2019-06-27T02:33:23.156Z,61.00
2019-06-27T02:35:53.433Z,61.22
2019-06-27T02:38:23.913Z,60.92
2019-06-27T02:40:58.408Z,60.57
2019-06-27T02:43:26.953Z,60.42
2019-06-27T02:45:57.385Z,60.05
2019-06-27T02:48:27.840Z,60.45
2019-06-27T02:50:59.228Z,60.57
2019-06-27T02:53:29.673Z,61.11
2019-06-27T02:56:00.027Z,61.40
2019-06-27T02:58:32.388Z,61.79
2019-06-27T03:01:02.629Z,61.86
2019-06-27T03:03:32.992Z,61.94
2019-06-27T03:06:03.419Z,61.23
2019-06-27T03:08:33.780Z,61.05
2019-06-27T03:11:04.077Z,60.30
2019-06-27T03:13:34.647Z,59.25
2019-06-27T03:16:05.121Z,57.52
2019-06-27T03:18:35.782Z,56.29
2019-06-27T03:21:06.208Z,55.02
2019-06-27T03:23:37.318Z,53.53
2019-06-27T03:26:07.671Z,52.44
2019-06-27T03:28:52.097Z,52.53
2019-06-27T03:31:10.363Z,52.36
2019-06-27T03:33:40.973Z,51.80
2019-06-27T03:36:11.298Z,51.07
2019-06-27T03:38:42.253Z,51.33
2019-06-27T03:41:12.820Z,51.21
2019-06-27T03:43:43.152Z,51.35
2019-06-27T03:46:13.529Z,51.12
2019-06-27T03:48:43.850Z,50.33
2019-06-27T03:51:14.304Z,49.14
2019-06-27T03:53:44.799Z,47.95
2019-06-27T03:56:15.110Z,47.52
2019-06-27T03:58:45.502Z,47.75
2019-06-27T04:01:16.017Z,48.93
2019-06-27T04:03:46.374Z,50.83
2019-06-27T04:06:16.868Z,51.64
2019-06-27T04:08:47.249Z,52.14
2019-06-27T04:11:17.620Z,52.91
2019-06-27T04:13:47.963Z,53.39
2019-06-27T04:16:18.528Z,54.30
2019-06-27T04:18:48.977Z,55.26
2019-06-27T04:21:19.306Z,55.03
2019-06-27T04:23:49.703Z,55.32
2019-06-27T04:26:20.088Z,55.26
2019-06-27T04:28:50.452Z,55.52
2019-06-27T04:31:20.925Z,55.66
2019-06-27T04:33:51.378Z,55.21
2019-06-27T04:36:21.821Z,54.89
2019-06-27T04:38:52.216Z,54.57
2019-06-27T04:41:23.489Z,54.68
2019-06-27T04:43:53.845Z,54.92
2019-06-27T04:46:24.352Z,55.18
2019-06-27T04:48:58.785Z,54.94
2019-06-27T04:51:29.142Z,54.96
2019-06-27T04:54:10.581Z,54.81
2019-06-27T04:56:40.967Z,54.69
2019-06-27T04:59:11.452Z,54.14
2019-06-27T05:01:42.199Z,53.63
2019-06-27T05:04:12.631Z,50.96
2019-06-27T05:06:43.177Z,50.31
2019-06-27T05:09:13.549Z,50.10
2019-06-27T05:11:44.016Z,49.25
2019-06-27T05:14:14.396Z,46.68
2019-06-27T05:16:44.820Z,43.71
2019-06-27T05:19:15.450Z,40.66
2019-06-27T05:21:45.874Z,37.79
2019-06-27T05:24:16.213Z,35.00
2019-06-27T05:26:46.647Z,33.06
2019-06-27T05:29:16.990Z,30.69
2019-06-27T05:31:47.448Z,29.49
2019-06-27T05:34:17.823Z,27.76
2019-06-27T05:36:48.145Z,26.06
2019-06-27T05:39:18.483Z,25.02
2019-06-27T05:41:50.552Z,24.41
2019-06-27T05:44:21.149Z,23.70
2019-06-27T05:46:51.547Z,24.22
2019-06-27T05:49:21.914Z,23.47
2019-06-27T05:51:52.649Z,23.93
2019-06-27T05:54:22.968Z,23.33
2019-06-27T05:56:53.504Z,22.50
2019-06-27T05:59:23.881Z,22.73
2019-06-27T06:01:54.537Z,22.40
2019-06-27T06:04:24.983Z,23.03
2019-06-27T06:06:55.397Z,22.31
2019-06-27T06:09:25.814Z,21.72
2019-06-27T06:11:56.359Z,21.72
2019-06-27T06:14:27.132Z,22.14
2019-06-27T06:16:58.179Z,22.43
2019-06-27T06:19:28.765Z,21.68
2019-06-27T06:21:59.281Z,20.91
2019-06-27T06:24:29.645Z,20.81
2019-06-27T06:27:00.130Z,20.47
2019-06-27T06:29:30.545Z,21.71
2019-06-27T06:32:00.870Z,20.94
2019-06-27T06:34:31.276Z,20.77
2019-06-27T06:37:02.116Z,20.12
2019-06-27T06:39:33.158Z,20.09
2019-06-27T06:42:03.695Z,21.57
2019-06-27T06:44:34.460Z,21.46
2019-06-27T06:47:07.151Z,21.29
2019-06-27T06:49:37.456Z,20.99
2019-06-27T06:52:07.767Z,22.13
2019-06-27T06:54:38.307Z,23.26
2019-06-27T06:57:08.795Z,25.56
2019-06-27T06:59:39.173Z,27.42
2019-06-27T07:02:09.740Z,27.10
2019-06-27T07:04:40.069Z,27.35
2019-06-27T07:07:13.109Z,26.79
2019-06-27T07:09:42.559Z,27.54
2019-06-27T07:12:12.969Z,28.35
2019-06-27T07:14:43.363Z,27.72
2019-06-27T07:17:13.810Z,29.09
2019-06-27T07:19:44.138Z,28.95
2019-06-27T07:22:14.528Z,27.56
2019-06-27T07:24:44.916Z,27.62
2019-06-27T07:27:15.343Z,26.28
2019-06-27T07:29:45.721Z,25.87
2019-06-27T07:32:16.163Z,25.27
2019-06-27T07:34:46.535Z,26.46
2019-06-27T07:37:16.858Z,25.81
2019-06-27T07:39:47.344Z,25.71
2019-06-27T07:42:17.672Z,24.57
2019-06-27T07:44:48.028Z,25.11
2019-06-27T07:47:18.443Z,25.92
2019-06-27T07:49:48.931Z,24.87
2019-06-27T07:52:19.384Z,24.70
2019-06-27T07:54:50.217Z,24.09
2019-06-27T07:57:23.201Z,23.66
2019-06-27T07:59:53.674Z,23.58
2019-06-27T08:02:24.047Z,23.51
2019-06-27T08:04:54.515Z,24.79
2019-06-27T08:07:25.957Z,25.04
2019-06-27T08:09:56.335Z,24.83
2019-06-27T08:12:26.680Z,26.07
2019-06-27T08:14:58.171Z,26.68
2019-06-27T08:17:28.893Z,26.87
2019-06-27T08:19:59.434Z,28.69
2019-06-27T08:22:29.976Z,30.26
2019-06-27T08:25:00.441Z,32.24
2019-06-27T08:27:31.023Z,32.68
2019-06-27T08:30:02.064Z,34.61
2019-06-27T08:32:33.175Z,35.90
2019-06-27T08:35:03.959Z,36.26
2019-06-27T08:37:34.420Z,39.22
2019-06-27T08:40:05.048Z,39.67
2019-06-27T08:42:35.670Z,39.84
2019-06-27T08:45:06.333Z,39.53
2019-06-27T08:47:56.530Z,38.23
2019-06-27T08:50:26.934Z,39.46
2019-06-27T08:53:00.346Z,39.95
2019-06-27T08:55:29.475Z,40.25
2019-06-27T08:58:00.084Z,40.25
2019-06-27T09:00:32.584Z,40.60
2019-06-27T09:03:04.728Z,41.00
2019-06-27T09:05:35.940Z,41.32
2019-06-27T09:08:06.507Z,40.10
2019-06-27T09:10:37.006Z,39.68
2019-06-27T09:13:07.333Z,40.54
2019-06-27T09:15:52.674Z,40.83
2019-06-27T09:18:25.734Z,39.76
2019-06-27T09:20:59.444Z,40.90
2019-06-27T09:23:29.995Z,40.70
2019-06-27T09:26:00.419Z,40.78
2019-06-27T09:28:33.224Z,38.40
2019-06-27T09:31:05.413Z,39.78
2019-06-27T09:33:35.830Z,39.14
2019-06-27T09:36:06.473Z,40.36
2019-06-27T09:38:36.848Z,39.42
2019-06-27T09:41:07.304Z,39.14
2019-06-27T09:43:37.753Z,37.94
2019-06-27T09:46:08.131Z,38.60
2019-06-27T09:48:38.524Z,39.06
2019-06-27T09:51:09.123Z,38.94
2019-06-27T09:53:39.671Z,37.73
2019-06-27T09:56:10.122Z,38.34
2019-06-27T09:59:09.445Z,38.12
2019-06-27T10:01:39.885Z,39.16
2019-06-27T10:04:10.360Z,39.84
2019-06-27T10:06:40.690Z,37.60
2019-06-27T10:09:11.060Z,38.15
2019-06-27T10:11:41.440Z,39.86
2019-06-27T10:14:12.281Z,40.39
2019-06-27T10:16:43.721Z,41.50
2019-06-27T10:19:14.160Z,43.64
2019-06-27T10:21:44.618Z,43.77
2019-06-27T10:24:15.039Z,46.54
2019-06-27T10:26:45.457Z,47.15
2019-06-27T10:29:15.870Z,46.17
2019-06-27T10:31:46.389Z,44.61
2019-06-27T10:34:16.798Z,45.74
2019-06-27T10:36:47.155Z,46.40
2019-06-27T10:39:17.644Z,46.52
2019-06-27T10:41:48.063Z,48.03
2019-06-27T10:44:18.494Z,46.83
2019-06-27T10:46:48.963Z,47.92
2019-06-27T10:49:19.869Z,48.92
2019-06-27T10:51:50.208Z,49.23
2019-06-27T10:54:20.573Z,48.94
2019-06-27T10:56:50.991Z,49.35
2019-06-27T10:59:21.455Z,50.74
2019-06-27T11:01:51.864Z,50.38
2019-06-27T11:04:22.364Z,51.00
2019-06-27T11:06:52.783Z,50.61
2019-06-27T11:09:23.187Z,50.83
2019-06-27T11:11:53.937Z,50.31
2019-06-27T11:14:24.376Z,50.36
2019-06-27T11:16:54.900Z,51.02
2019-06-27T11:19:25.407Z,50.14
2019-06-27T11:21:55.725Z,51.06
2019-06-27T11:24:26.151Z,50.76
2019-06-27T11:26:56.556Z,50.55
2019-06-27T11:29:26.866Z,52.41
2019-06-27T11:31:57.247Z,53.17
2019-06-27T11:34:27.854Z,53.31
2019-06-27T11:36:58.217Z,52.25
2019-06-27T11:39:28.601Z,52.85
2019-06-27T11:41:59.037Z,52.52
2019-06-27T11:44:29.509Z,52.49
2019-06-27T11:46:59.865Z,52.48
2019-06-27T11:49:30.305Z,50.49
2019-06-27T11:52:01.025Z,52.00
2019-06-27T11:54:31.430Z,52.17
2019-06-27T11:57:01.820Z,51.98
2019-06-27T11:59:32.221Z,51.99
2019-06-27T12:02:02.653Z,51.74
2019-06-27T12:04:33.252Z,51.41
2019-06-27T12:07:03.644Z,51.68
2019-06-27T12:09:34.457Z,50.00
2019-06-27T12:12:04.974Z,49.06
2019-06-27T12:14:35.285Z,50.37
2019-06-27T12:17:05.655Z,51.65
2019-06-27T12:19:36.076Z,52.25
2019-06-27T12:22:06.611Z,52.14
2019-06-27T12:24:37.102Z,51.97
2019-06-27T12:27:07.893Z,52.80
2019-06-27T12:29:38.332Z,51.80
2019-06-27T12:32:09.276Z,52.27
2019-06-27T12:34:39.695Z,52.42
2019-06-27T12:37:10.128Z,52.54
2019-06-27T12:39:40.528Z,51.98
2019-06-27T12:42:10.839Z,51.55
2019-06-27T12:44:41.160Z,51.73
2019-06-27T12:47:11.644Z,51.61
2019-06-27T12:50:00.569Z,52.03
2019-06-27T12:52:14.161Z,53.79
2019-06-27T12:54:44.597Z,52.87
2019-06-27T12:57:15.040Z,53.41
2019-06-27T12:59:45.358Z,52.82
2019-06-27T13:02:15.870Z,52.87
2019-06-27T13:04:46.796Z,52.32
2019-06-27T13:07:17.214Z,51.70
2019-06-27T13:09:48.240Z,52.86
2019-06-27T13:12:18.633Z,52.53
2019-06-27T13:14:49.147Z,53.08
2019-06-27T13:17:19.564Z,53.72
2019-06-27T13:19:49.950Z,54.04
2019-06-27T13:22:20.400Z,53.62
2019-06-27T13:24:51.119Z,53.66
2019-06-27T13:27:21.676Z,52.89
2019-06-27T13:29:52.116Z,52.75
2019-06-27T13:32:25.518Z,53.76
2019-06-27T13:34:55.333Z,53.36
2019-06-27T13:37:25.650Z,53.43
2019-06-27T13:39:56.140Z,54.36
2019-06-27T13:42:26.610Z,54.89
2019-06-27T13:44:57.013Z,55.68
2019-06-27T13:47:27.399Z,54.34
2019-06-27T13:49:58.196Z,54.36
2019-06-27T13:52:28.685Z,55.11
2019-06-27T13:54:59.120Z,55.41
2019-06-27T13:57:29.518Z,54.91
2019-06-27T14:00:01.353Z,54.71
2019-06-27T14:02:32.050Z,54.90
2019-06-27T14:05:02.818Z,54.55
2019-06-27T14:07:33.257Z,54.25
2019-06-27T14:10:03.991Z,54.69
2019-06-27T14:12:34.623Z,55.51
2019-06-27T14:15:05.418Z,54.71
2019-06-27T14:17:35.921Z,55.01
2019-06-27T14:20:06.550Z,55.20
2019-06-27T14:22:36.981Z,55.01
2019-06-27T14:25:08.059Z,54.91
2019-06-27T14:27:38.712Z,55.44
2019-06-27T14:30:09.554Z,55.71
2019-06-27T14:32:40.014Z,55.98
2019-06-27T14:35:16.017Z,55.24
2019-06-27T14:37:42.897Z,55.83
2019-06-27T14:40:13.562Z,56.25
2019-06-27T14:42:44.298Z,56.45
2019-06-27T14:45:15.321Z,56.72
2019-06-27T14:47:45.707Z,55.87
2019-06-27T14:50:16.233Z,55.62
2019-06-27T14:52:47.332Z,55.72
2019-06-27T14:55:17.882Z,55.26
2019-06-27T14:57:48.861Z,54.92
2019-06-27T15:00:19.661Z,55.22
2019-06-27T15:02:50.157Z,55.11
2019-06-27T15:05:31.810Z,55.67
2019-06-27T15:07:52.764Z,55.29
2019-06-27T15:10:23.245Z,54.57
2019-06-27T15:12:57.318Z,54.49
2019-06-27T15:15:25.942Z,54.27
2019-06-27T15:17:56.464Z,54.69
2019-06-27T15:20:26.760Z,54.93
2019-06-27T15:22:57.290Z,55.58
2019-06-27T15:25:34.434Z,56.07
2019-06-27T15:28:04.880Z,55.72
2019-06-27T15:30:35.448Z,56.34
2019-06-27T15:33:05.860Z,56.05
2019-06-27T15:35:50.976Z,56.79
2019-06-27T15:38:09.036Z,56.43
2019-06-27T15:40:39.379Z,56.45
2019-06-27T15:43:09.891Z,56.70
2019-06-27T15:45:40.517Z,57.10
2019-06-27T15:48:10.897Z,56.80
2019-06-27T15:50:41.277Z,56.89
2019-06-27T15:53:11.734Z,56.23
2019-06-27T15:55:42.233Z,56.24
2019-06-27T15:58:12.728Z,55.58
2019-06-27T16:00:43.117Z,55.57
2019-06-27T16:03:14.085Z,56.13
2019-06-27T16:05:44.607Z,56.28
2019-06-27T16:08:15.053Z,56.11
2019-06-27T16:10:45.698Z,56.53
2019-06-27T16:13:16.198Z,56.53
2019-06-27T16:15:46.657Z,56.24
2019-06-27T16:18:17.168Z,56.08
2019-06-27T16:20:47.969Z,55.56
2019-06-27T16:23:18.394Z,56.22
2019-06-27T16:25:49.217Z,55.60
2019-06-27T16:28:19.655Z,56.14
2019-06-27T16:30:50.032Z,56.35
2019-06-27T16:33:20.398Z,57.15
2019-06-27T16:35:50.848Z,55.31
2019-06-27T16:38:21.249Z,56.29
2019-06-27T16:40:51.624Z,57.23
2019-06-27T16:43:22.105Z,57.31
2019-06-27T16:45:52.455Z,57.16
2019-06-27T16:48:22.799Z,57.71
2019-06-27T16:50:53.247Z,58.28
2019-06-27T16:53:23.758Z,58.30
2019-06-27T16:55:54.145Z,58.31
2019-06-27T16:58:24.829Z,58.70
2019-06-27T17:00:55.272Z,59.29
2019-06-27T17:03:27.419Z,59.94
2019-06-27T17:05:57.741Z,60.62
2019-06-27T17:08:28.210Z,61.17
2019-06-27T17:10:58.995Z,62.09
2019-06-27T17:13:29.450Z,61.88
2019-06-27T17:15:59.823Z,61.79
2019-06-27T17:18:30.356Z,62.26
2019-06-27T17:21:00.807Z,62.68
2019-06-27T17:23:31.173Z,62.60
2019-06-27T17:26:01.581Z,63.39
2019-06-27T17:28:35.035Z,63.79
2019-06-27T17:31:04.551Z,64.69
2019-06-27T17:33:34.955Z,65.53
2019-06-27T17:36:05.383Z,65.44
2019-06-27T17:38:35.871Z,65.65
2019-06-27T17:41:06.307Z,66.12
2019-06-27T17:43:36.681Z,66.25
2019-06-27T17:46:07.229Z,66.47
2019-06-27T17:48:37.698Z,66.44
2019-06-27T17:51:08.368Z,66.40
2019-06-27T17:53:38.713Z,67.01
2019-06-27T17:56:09.193Z,66.88
2019-06-27T17:58:39.516Z,67.27
2019-06-27T18:01:09.883Z,67.73
2019-06-27T18:03:40.405Z,68.12
2019-06-27T18:06:10.776Z,68.25
2019-06-27T18:08:41.095Z,68.12
2019-06-27T18:11:11.525Z,67.59
2019-06-27T18:13:42.699Z,67.30
2019-06-27T18:16:13.210Z,67.30
2019-06-27T18:18:43.593Z,67.28
2019-06-27T18:21:14.026Z,67.32
2019-06-27T18:23:53.955Z,67.32
2019-06-27T18:26:26.523Z,67.20
2019-06-27T18:29:21.568Z,67.19
2019-06-27T18:31:53.470Z,66.96
2019-06-27T18:34:24.529Z,67.54
2019-06-27T18:36:55.042Z,68.06
2019-06-27T18:39:25.644Z,68.14
2019-06-27T18:41:56.098Z,68.21
2019-06-27T18:44:26.815Z,68.66
2019-06-27T18:46:57.456Z,68.81
2019-06-27T18:49:28.999Z,68.74
2019-06-27T18:51:59.671Z,68.72
2019-06-27T18:54:30.048Z,68.83
2019-06-27T18:57:01.384Z,69.21
2019-06-27T18:59:31.796Z,69.21
2019-06-27T19:02:02.206Z,69.16
2019-06-27T19:04:32.719Z,68.17
2019-06-27T19:07:05.703Z,65.36
2019-06-27T19:09:36.070Z,63.73
2019-06-27T19:12:06.543Z,65.21
2019-06-27T19:14:36.999Z,62.74
2019-06-27T19:17:07.546Z,61.52
2019-06-27T19:19:39.799Z,62.33
2019-06-27T19:22:28.907Z,62.33
2019-06-27T19:25:07.272Z,62.77
2019-06-27T19:27:39.136Z,60.96
2019-06-27T19:30:10.546Z,58.12
2019-06-27T19:32:41.084Z,55.86
2019-06-27T19:35:11.529Z,54.17
2019-06-27T19:37:41.957Z,52.94
2019-06-27T19:40:12.436Z,51.97
2019-06-27T19:42:42.933Z,51.64
2019-06-27T19:45:13.831Z,50.85
2019-06-27T19:47:44.155Z,50.03
2019-06-27T19:50:14.915Z,50.03
2019-06-27T19:52:45.343Z,49.70
2019-06-27T19:55:15.791Z,49.68
2019-06-27T19:57:46.176Z,49.92
2019-06-27T20:00:17.801Z,49.85
2019-06-27T20:02:48.494Z,50.15
2019-06-27T20:05:19.564Z,50.14
2019-06-27T20:07:49.984Z,50.12
2019-06-27T20:10:21.036Z,50.24
2019-06-27T20:12:52.792Z,50.62
2019-06-27T20:15:27.195Z,50.72
2019-06-27T20:17:57.661Z,50.81
2019-06-27T20:20:28.416Z,51.22
2019-06-27T20:22:59.050Z,51.43
2019-06-27T20:25:29.404Z,51.26
2019-06-27T20:28:01.986Z,51.79
2019-06-27T20:30:33.181Z,52.58
2019-06-27T20:33:14.036Z,53.07
2019-06-27T20:35:55.622Z,53.20
2019-06-27T20:38:35.047Z,53.47
2019-06-27T20:41:01.097Z,53.32
2019-06-27T20:43:36.406Z,53.39
2019-06-27T20:46:09.289Z,53.39
2019-06-27T20:49:01.849Z,53.21
2019-06-27T20:51:32.417Z,53.36
2019-06-27T20:54:27.790Z,52.98
2019-06-27T20:57:03.372Z,53.07
2019-06-27T20:59:34.256Z,53.20
2019-06-27T21:02:23.962Z,53.42
2019-06-27T21:04:54.487Z,53.66
2019-06-27T21:07:24.849Z,53.61
2019-06-27T21:09:56.373Z,53.56
2019-06-27T21:12:26.962Z,53.68
2019-06-27T21:14:57.572Z,53.68
2019-06-27T21:17:28.064Z,53.77
2019-06-27T21:20:00.305Z,53.95
2019-06-27T21:22:33.021Z,53.72
2019-06-27T21:25:06.203Z,53.76
2019-06-27T21:27:36.983Z,53.61
2019-06-27T21:30:09.781Z,54.70
2019-06-27T21:32:40.181Z,55.08
2019-06-27T21:35:24.513Z,55.61
2019-06-27T21:37:55.735Z,56.45
2019-06-27T21:40:29.061Z,56.78
2019-06-27T21:43:00.167Z,57.23
2019-06-27T21:45:30.599Z,57.27
2019-06-27T21:48:01.737Z,57.29
2019-06-27T21:50:32.370Z,57.64
2019-06-27T21:53:03.185Z,57.86
2019-06-27T21:55:34.630Z,58.47
2019-06-27T21:58:06.321Z,58.67
2019-06-27T22:00:39.404Z,58.48
2019-06-27T22:03:10.027Z,58.59
2019-06-27T22:05:41.517Z,58.96
2019-06-27T22:08:12.023Z,59.19
2019-06-27T22:10:42.587Z,59.61
2019-06-27T22:13:12.948Z,59.73
2019-06-27T22:15:43.296Z,60.06
2019-06-27T22:18:15.401Z,60.24
2019-06-27T22:20:47.120Z,60.56
2019-06-27T22:23:17.485Z,60.51
2019-06-27T22:25:48.987Z,61.09
2019-06-27T22:28:19.395Z,61.30
2019-06-27T22:30:51.977Z,61.24
2019-06-27T22:33:24.546Z,61.31
2019-06-27T22:35:55.503Z,61.40
2019-06-27T22:38:43.333Z,61.79
2019-06-27T22:41:31.743Z,61.83
2019-06-27T22:44:19.322Z,61.98
2019-06-27T22:47:07.083Z,62.02
2019-06-27T22:49:36.996Z,62.02
2019-06-27T22:52:26.905Z,61.79
2019-06-27T22:54:59.474Z,61.80
2019-06-27T22:57:30.421Z,61.90
2019-06-27T23:00:03.277Z,62.27
2019-06-27T23:02:34.285Z,62.29
2019-06-27T23:05:05.876Z,62.45
2019-06-27T23:07:36.283Z,62.75
2019-06-27T23:10:14.595Z,63.23
2019-06-27T23:12:45.065Z,63.55
2019-06-27T23:15:15.491Z,63.64
2019-06-27T23:17:45.955Z,63.97
2019-06-27T23:20:16.755Z,63.98
2019-06-27T23:22:47.179Z,63.96
2019-06-27T23:25:17.558Z,63.69
2019-06-27T23:27:48.072Z,63.84
2019-06-27T23:30:18.689Z,63.77
2019-06-27T23:32:49.040Z,63.72
2019-06-27T23:35:19.509Z,63.51
2019-06-27T23:37:49.989Z,63.55
2019-06-27T23:40:20.381Z,64.07
2019-06-27T23:42:50.694Z,63.87
2019-06-27T23:45:21.559Z,63.71
2019-06-27T23:47:51.905Z,63.85
2019-06-27T23:50:22.276Z,63.89
2019-06-27T23:52:52.799Z,63.66
2019-06-27T23:55:25.970Z,63.92
2019-06-27T23:57:56.387Z,63.81
